Time;durP1;ratioP1;P1;durP2;ratioP2;P2;SDS_P1;SDS_P2;PMS_P1;PMS_P2;Temp;Humidity;BMP_temperature;BMP_pressure;BME280_temperature;BME280_humidity;BME280_pressure;Samples;Min_cycle;Max_cycle;Signal;HPM_P1;HPM_P2
2021/07/18 00:00:23;;;;;;;;;;;;;;;23.75;61.01;99967.75;5033185;28;1841;-42
2021/07/18 00:02:50;;;;;;;;;;;;;;;23.85;60.44;99978.31;5027526;28;1862;-42
2021/07/18 00:05:16;;;;;;;;;;;;;;;23.81;60.76;99950.88;5032950;28;1911;-42
2021/07/18 00:07:47;;;;;;;;;;;;;;;23.85;60.60;99958.56;5033258;28;1980;-42
2021/07/18 00:10:17;;;;;;;;;;;;;;;23.79;60.65;99954.75;5032989;28;1912;-43
2021/07/18 00:12:45;;;;;;;;;;;;;;;23.81;60.25;99961.66;5032961;28;1808;-42
2021/07/18 00:15:16;;;;;;;;;;;;;;;23.67;60.79;99948.94;5032787;28;1543;-43
2021/07/18 00:17:44;;;;;;;;;;;;;;;23.61;60.19;99949.69;5032380;28;1657;-42
2021/07/18 00:20:19;;;;;;;;;;;;;;;23.60;60.41;99953.44;5032960;28;1595;-42
2021/07/18 00:22:46;;;;;;;;;;;;;;;23.61;60.18;99944.31;5018015;28;1866;-42
2021/07/18 00:25:13;;;;;;;;;;;;;;;23.68;59.82;99968.72;5032984;28;1892;-42
2021/07/18 00:27:43;;;;;;;;;;;;;;;23.68;59.62;99950.66;5024795;28;1981;-42
2021/07/18 00:30:11;;;;;;;;;;;;;;;23.75;59.29;99967.75;5032676;28;1598;-42
2021/07/18 00:32:38;;;;;;;;;;;;;;;23.81;59.22;99966.19;5032659;28;1582;-42
2021/07/18 00:35:06;;;;;;;;;;;;;;;23.95;58.95;99951.03;5032690;28;1977;-42
2021/07/18 00:37:41;;;;;;;;;;;;;;;24.01;59.58;99963.78;5032456;28;1548;-43
2021/07/18 00:40:09;;;;;;;;;;;;;;;24.01;58.53;99966.47;5033024;28;1924;-42
2021/07/18 00:42:57;;;;;;;;;;;;;;;24.06;59.18;99963.22;5032477;28;1898;-42
2021/07/18 00:45:27;;;;;;;;;;;;;;;24.11;59.46;99966.19;5032586;28;1932;-42
2021/07/18 00:47:54;;;;;;;;;;;;;;;24.08;58.76;99959.31;5035348;28;1914;-42
2021/07/18 00:50:22;;;;;;;;;;;;;;;24.03;58.98;99967.13;5036190;28;1790;-41
2021/07/18 00:52:48;;;;;;;;;;;;;;;24.01;59.62;99963.78;5035630;28;1608;-42
2021/07/18 00:55:16;;;;;;;;;;;;;;;23.99;59.29;99947.78;5036217;28;1813;-42
2021/07/18 00:57:46;;;;;;;;;;;;;;;24.07;59.12;99963.00;5035757;28;1592;-42
2021/07/18 01:00:13;;;;;;;;;;;;;;;23.80;59.80;99976.16;5028124;28;2424;-42
2021/07/18 01:02:45;;;;;;;;;;;;;;;23.85;59.61;99972.06;5036118;28;1635;-42
2021/07/18 01:05:14;;;;;;;;;;;;;;;23.88;59.72;99950.13;5035578;28;1608;-42
2021/07/18 01:07:41;;;;;;;;;;;;;;;23.91;59.79;99957.81;5036171;28;1985;-42
2021/07/18 01:10:08;;;;;;;;;;;;;;;23.91;59.68;99949.72;5036210;28;1940;-42
2021/07/18 01:12:35;;;;;;;;;;;;;;;23.86;59.82;99955.69;5035816;28;2104;-42
2021/07/18 01:15:04;;;;;;;;;;;;;;;23.88;59.42;99942.00;5035704;28;1882;-43
2021/07/18 01:17:32;;;;;;;;;;;;;;;23.94;59.70;99962.88;5035745;28;1589;-42
2021/07/18 01:20:04;;;;;;;;;;;;;;;23.90;59.36;99953.47;5035224;28;1899;-42
2021/07/18 01:22:37;;;;;;;;;;;;;;;23.85;59.73;99951.31;5035684;28;1489;-42
2021/07/18 01:25:06;;;;;;;;;;;;;;;23.90;59.28;99961.56;5036524;28;1778;-42
2021/07/18 01:27:33;;;;;;;;;;;;;;;23.90;59.85;99948.88;5035536;28;1972;-42
2021/07/18 01:30:01;;;;;;;;;;;;;;;23.89;59.22;99952.59;5035355;28;1905;-42
2021/07/18 01:32:27;;;;;;;;;;;;;;;23.85;59.42;99947.78;5035262;28;1669;-42
2021/07/18 01:34:54;;;;;;;;;;;;;;;23.76;59.79;99955.13;5035415;28;1587;-42
2021/07/18 01:37:20;;;;;;;;;;;;;;;23.73;60.04;99950.06;5035486;28;1504;-42
2021/07/18 01:39:50;;;;;;;;;;;;;;;23.77;59.83;99960.34;5034753;28;1729;-42
2021/07/18 01:42:17;;;;;;;;;;;;;;;23.82;59.45;99974.13;5035592;28;1842;-42
2021/07/18 01:44:44;;;;;;;;;;;;;;;23.79;59.18;99962.84;5034985;28;1822;-42
2021/07/18 01:47:11;;;;;;;;;;;;;;;23.80;59.67;99970.78;5035112;28;1906;-42
2021/07/18 01:49:39;;;;;;;;;;;;;;;23.81;59.77;99964.38;5034967;28;1940;-42
2021/07/18 01:52:06;;;;;;;;;;;;;;;23.79;59.67;99963.69;5035458;28;1591;-42
2021/07/18 01:54:34;;;;;;;;;;;;;;;23.85;59.12;99985.56;5034985;28;1844;-42
2021/07/18 01:57:16;;;;;;;;;;;;;;;23.71;59.80;99958.34;5034756;28;1596;-42
2021/07/18 01:59:43;;;;;;;;;;;;;;;23.60;59.94;99977.72;5034008;28;1886;-42
2021/07/18 02:02:09;;;;;;;;;;;;;;;23.56;59.97;99982.66;5137496;22;3661;-42
2021/07/18 02:04:36;;;;;;;;;;;;;;;23.61;59.98;99982.09;5034903;28;1069;-42
2021/07/18 02:07:03;;;;;;;;;;;;;;;23.63;59.62;99994.41;5034837;28;1022;-42
2021/07/18 02:09:30;;;;;;;;;;;;;;;23.66;59.69;99984.25;5034313;28;1962;-42
2021/07/18 02:11:56;;;;;;;;;;;;;;;23.55;60.03;99989.06;5034392;28;1672;-42
2021/07/18 02:14:24;;;;;;;;;;;;;;;23.54;60.12;99986.56;5034423;28;1146;-42
2021/07/18 02:16:52;;;;;;;;;;;;;;;23.65;59.63;99993.34;5034762;28;1011;-42
2021/07/18 02:19:19;;;;;;;;;;;;;;;23.62;59.71;99994.56;5034409;28;1085;-42
2021/07/18 02:21:45;;;;;;;;;;;;;;;23.60;59.82;99989.34;5034294;28;1181;-42
2021/07/18 02:24:12;;;;;;;;;;;;;;;23.60;59.72;100007.41;5034293;28;1007;-42
2021/07/18 02:26:38;;;;;;;;;;;;;;;23.66;59.49;100001.28;5034265;28;1697;-42
2021/07/18 02:29:05;;;;;;;;;;;;;;;23.65;59.56;99994.19;5034081;28;1967;-42
2021/07/18 02:31:33;;;;;;;;;;;;;;;23.64;59.42;100003.31;5034190;28;1076;-42
2021/07/18 02:34:00;;;;;;;;;;;;;;;23.61;59.44;99992.88;5034028;28;1134;-42
2021/07/18 02:36:26;;;;;;;;;;;;;;;23.65;59.52;99998.75;5034079;28;1040;-42
2021/07/18 02:38:54;;;;;;;;;;;;;;;23.62;59.59;99994.56;5034268;28;1014;-42
2021/07/18 02:41:20;;;;;;;;;;;;;;;23.61;59.73;100009.06;5034204;28;1713;-41
2021/07/18 02:43:47;;;;;;;;;;;;;;;23.62;59.52;100010.78;5033662;28;1100;-42
2021/07/18 02:46:13;;;;;;;;;;;;;;;23.60;59.57;100016.34;5034345;28;1039;-42
2021/07/18 02:48:41;;;;;;;;;;;;;;;23.55;59.89;100004.41;5033617;28;1906;-42
2021/07/18 02:51:08;;;;;;;;;;;;;;;23.59;59.66;100011.13;5033984;28;1261;-42
2021/07/18 02:53:34;;;;;;;;;;;;;;;23.65;59.73;100004.16;5033630;28;1127;-42
2021/07/18 02:56:01;;;;;;;;;;;;;;;23.62;59.67;100006.19;5033682;28;1042;-42
2021/07/18 02:58:28;;;;;;;;;;;;;;;23.69;60.27;100010.84;5033401;28;1789;-42
2021/07/18 03:00:54;;;;;;;;;;;;;;;23.72;60.02;100019.44;5028628;28;1567;-42
2021/07/18 03:03:21;;;;;;;;;;;;;;;23.58;60.01;100009.47;5033485;28;1558;-42
2021/07/18 03:05:48;;;;;;;;;;;;;;;23.34;60.82;100003.28;5033781;28;1083;-42
2021/07/18 03:08:15;;;;;;;;;;;;;;;23.41;60.48;100009.59;5033323;28;1984;-42
2021/07/18 03:10:41;;;;;;;;;;;;;;;23.51;60.35;100008.50;5034085;28;1085;-42
2021/07/18 03:13:08;;;;;;;;;;;;;;;23.49;60.44;100024.03;5033657;28;1629;-42
2021/07/18 03:15:34;;;;;;;;;;;;;;;23.49;60.10;100010.56;5033745;28;1146;-42
2021/07/18 03:18:02;;;;;;;;;;;;;;;23.48;59.91;100006.19;5033408;28;1087;-42
2021/07/18 03:20:28;;;;;;;;;;;;;;;23.59;60.20;100017.34;5033426;28;1666;-42
2021/07/18 03:22:56;;;;;;;;;;;;;;;23.62;60.47;100011.59;5033659;28;1089;-42
2021/07/18 03:25:22;;;;;;;;;;;;;;;23.62;59.79;100014.31;5033512;28;1070;-42
2021/07/18 03:27:49;;;;;;;;;;;;;;;23.60;60.19;100020.91;5033489;28;1898;-42
2021/07/18 03:30:17;;;;;;;;;;;;;;;23.56;60.32;99989.91;5033204;28;1688;-43
2021/07/18 03:32:43;;;;;;;;;;;;;;;23.67;60.42;100023.69;5033576;28;1082;-42
2021/07/18 03:35:11;;;;;;;;;;;;;;;23.57;60.57;100030.19;5033249;28;1205;-42
2021/07/18 03:37:38;;;;;;;;;;;;;;;23.57;60.44;100034.75;5032902;28;1607;-42
2021/07/18 03:40:06;;;;;;;;;;;;;;;23.58;60.64;100021.09;5033503;28;1090;-42
2021/07/18 03:42:33;;;;;;;;;;;;;;;23.61;60.40;100018.00;5032305;28;1658;-42
2021/07/18 03:44:59;;;;;;;;;;;;;;;23.63;59.98;100021.38;5033169;28;1686;-42
2021/07/18 03:47:26;;;;;;;;;;;;;;;23.68;60.14;100037.03;5033385;28;1051;-42
2021/07/18 03:49:52;;;;;;;;;;;;;;;23.64;60.00;100014.13;5032663;28;1977;-42
2021/07/18 03:52:22;;;;;;;;;;;;;;;23.71;59.66;100023.13;5033054;28;1605;-42
2021/07/18 03:54:52;;;;;;;;;;;;;;;23.72;60.06;100026.69;5033327;28;1684;-42
2021/07/18 03:57:24;;;;;;;;;;;;;;;23.82;59.97;100032.69;5033406;28;1065;-42
2021/07/18 03:59:52;;;;;;;;;;;;;;;23.85;60.01;100016.09;5033436;28;1089;-42
2021/07/18 04:02:19;;;;;;;;;;;;;;;23.81;60.12;100041.81;5032624;28;1354;-42
2021/07/18 04:04:47;;;;;;;;;;;;;;;23.79;60.20;100044.69;5033291;28;995;-42
2021/07/18 04:07:13;;;;;;;;;;;;;;;23.83;60.36;100028.94;5032953;28;1760;-42
2021/07/18 04:09:43;;;;;;;;;;;;;;;23.89;60.68;100032.78;5032647;28;1906;-42
2021/07/18 04:12:12;;;;;;;;;;;;;;;23.97;60.25;100027.28;5032824;28;1949;-42
2021/07/18 04:14:40;;;;;;;;;;;;;;;24.03;60.76;100023.84;5033360;28;1071;-42
2021/07/18 04:17:08;;;;;;;;;;;;;;;23.89;61.27;100036.31;5032990;28;1069;-42
2021/07/18 04:19:35;;;;;;;;;;;;;;;23.90;60.86;100050.66;5033178;28;1065;-42
2021/07/18 04:22:01;;;;;;;;;;;;;;;23.80;61.06;100034.75;5034154;28;1590;-42
2021/07/18 04:24:29;;;;;;;;;;;;;;;23.95;60.81;100032.88;5036224;28;1470;-42
2021/07/18 04:26:56;;;;;;;;;;;;;;;24.01;60.75;100042.09;5037007;28;1015;-42
2021/07/18 04:29:23;;;;;;;;;;;;;;;23.97;60.53;100040.78;5036426;28;1902;-42
2021/07/18 04:31:51;;;;;;;;;;;;;;;24.13;60.55;100018.16;5036620;28;1039;-42
2021/07/18 04:34:18;;;;;;;;;;;;;;;24.22;60.61;100039.47;5036162;28;1066;-42
2021/07/18 04:36:44;;;;;;;;;;;;;;;24.26;60.33;100049.91;5036592;28;1058;-42
2021/07/18 04:39:11;;;;;;;;;;;;;;;24.28;60.81;100043.28;5036138;28;1751;-42
2021/07/18 04:41:38;;;;;;;;;;;;;;;24.31;60.19;100036.66;5036124;28;1074;-42
2021/07/18 04:44:05;;;;;;;;;;;;;;;24.32;60.24;100044.59;5036067;28;1716;-42
2021/07/18 04:46:31;;;;;;;;;;;;;;;24.40;60.67;100052.59;5036258;28;1089;-42
2021/07/18 04:48:59;;;;;;;;;;;;;;;24.40;60.05;100041.78;5036003;28;1906;-42
2021/07/18 04:51:25;;;;;;;;;;;;;;;24.47;59.69;100046.44;5036353;28;1085;-42
2021/07/18 04:53:52;;;;;;;;;;;;;;;24.48;60.58;100042.72;5036029;28;1085;-42
2021/07/18 04:56:19;;;;;;;;;;;;;;;24.49;60.35;100039.84;5036166;28;1058;-42
2021/07/18 04:58:45;;;;;;;;;;;;;;;24.52;60.58;100036.75;5035678;28;1668;-42
2021/07/18 05:01:12;;;;;;;;;;;;;;;24.53;59.89;100035.75;5035719;28;1515;-42
2021/07/18 05:03:38;;;;;;;;;;;;;;;24.57;59.78;100042.44;5035599;28;1137;-42
2021/07/18 05:06:06;;;;;;;;;;;;;;;24.59;60.44;100035.00;5034864;28;1139;-42
2021/07/18 05:08:33;;;;;;;;;;;;;;;24.61;60.29;100027.53;5035652;28;1983;-42
2021/07/18 05:11:00;;;;;;;;;;;;;;;24.64;60.67;100050.63;5035736;28;1010;-42
2021/07/18 05:13:26;;;;;;;;;;;;;;;24.65;60.02;100037.94;5034542;28;1705;-42
2021/07/18 05:15:52;;;;;;;;;;;;;;;24.67;60.89;100049.41;5034624;28;1395;-42
2021/07/18 05:18:19;;;;;;;;;;;;;;;24.71;60.45;100053.41;5035600;28;1211;-42
2021/07/18 05:20:45;;;;;;;;;;;;;;;24.69;60.05;100047.34;5035911;28;1795;-41
2021/07/18 05:23:20;;;;;;;;;;;;;;;24.76;60.86;100059.91;5035474;28;1414;-41
2021/07/18 05:25:48;;;;;;;;;;;;;;;24.73;60.49;100051.34;5047106;28;1569;-41
2021/07/18 05:28:15;;;;;;;;;;;;;;;24.74;60.46;100063.84;5043408;28;1506;-41
2021/07/18 05:30:43;;;;;;;;;;;;;;;24.83;61.43;100061.84;5035196;28;1973;-41
2021/07/18 05:33:26;;;;;;;;;;;;;;;24.86;60.89;100073.13;5032656;28;2255;-42
2021/07/18 05:35:53;;;;;;;;;;;;;;;24.89;61.48;100067.34;5036224;28;1540;-41
2021/07/18 05:38:23;;;;;;;;;;;;;;;24.88;61.74;100068.38;5040945;28;1804;-41
2021/07/18 05:40:49;;;;;;;;;;;;;;;24.88;61.83;100064.84;5042928;28;1536;-41
2021/07/18 05:43:16;;;;;;;;;;;;;;;24.86;60.84;100059.59;5040719;28;1603;-41
2021/07/18 05:45:42;;;;;;;;;;;;;;;24.92;61.54;100064.25;5042933;28;1361;-41
2021/07/18 05:48:09;;;;;;;;;;;;;;;24.92;61.79;100058.00;5043961;28;1535;-41
2021/07/18 05:50:35;;;;;;;;;;;;;;;24.93;61.70;100073.19;5034842;28;1981;-41
2021/07/18 05:53:02;;;;;;;;;;;;;;;24.92;61.31;100058.84;5034596;28;1555;-41
2021/07/18 05:55:30;;;;;;;;;;;;;;;24.96;61.73;100062.00;5032936;28;2045;-41
2021/07/18 05:57:58;;;;;;;;;;;;;;;24.95;61.84;100049.53;5033899;28;1887;-41
2021/07/18 06:00:25;;;;;;;;;;;;;;;25.04;61.32;100063.75;5029158;28;1588;-41
2021/07/18 06:02:51;;;;;;;;;;;;;;;24.78;61.91;100065.97;5025239;28;11394;-41
2021/07/18 06:05:18;;;;;;;;;;;;;;;23.91;61.43;100063.13;5045547;28;1527;-41
2021/07/18 06:07:44;;;;;;;;;;;;;;;23.18;60.85;100057.38;5042533;28;1506;-41
2021/07/18 06:10:11;;;;;;;;;;;;;;;22.67;61.04;100065.91;5033209;28;2248;-41
2021/07/18 06:12:39;;;;;;;;;;;;;;;22.48;60.60;100061.78;5033532;28;1786;-41
2021/07/18 06:15:06;;;;;;;;;;;;;;;22.78;61.40;100062.81;5033956;28;1534;-41
2021/07/18 06:17:35;;;;;;;;;;;;;;;23.04;61.63;100056.28;5032429;28;2807;-41
2021/07/18 06:20:01;;;;;;;;;;;;;;;23.24;62.34;100051.25;5031724;28;1554;-41
2021/07/18 06:22:28;;;;;;;;;;;;;;;23.36;63.45;100054.34;5034320;28;1705;-41
2021/07/18 06:24:54;;;;;;;;;;;;;;;23.27;63.40;100058.13;5034642;28;1483;-41
2021/07/18 06:27:21;;;;;;;;;;;;;;;23.11;63.32;100059.09;5032888;28;1742;-41
2021/07/18 06:29:49;;;;;;;;;;;;;;;22.79;63.32;100055.56;5033713;28;1902;-41
2021/07/18 06:32:15;;;;;;;;;;;;;;;22.67;63.19;100051.59;5033719;28;1793;-41
2021/07/18 06:34:42;;;;;;;;;;;;;;;22.53;63.02;100054.03;5033472;28;1681;-40
2021/07/18 06:37:08;;;;;;;;;;;;;;;22.44;63.08;100042.47;5033255;28;1434;-41
2021/07/18 06:39:34;;;;;;;;;;;;;;;22.43;62.68;100048.00;5034549;28;1819;-40
2021/07/18 06:42:01;;;;;;;;;;;;;;;22.39;62.85;100044.00;5033959;28;1660;-41
2021/07/18 06:44:27;;;;;;;;;;;;;;;22.34;62.22;100044.53;5033247;28;1863;-41
2021/07/18 06:46:55;;;;;;;;;;;;;;;22.43;62.21;100045.31;5033290;28;1640;-41
2021/07/18 06:49:22;;;;;;;;;;;;;;;22.53;61.71;100055.88;5033585;28;1906;-41
2021/07/18 06:51:48;;;;;;;;;;;;;;;22.52;61.62;100040.72;5033098;28;1459;-40
2021/07/18 06:54:15;;;;;;;;;;;;;;;22.46;61.59;100052.19;5032566;28;1779;-41
2021/07/18 06:56:41;;;;;;;;;;;;;;;22.47;61.83;100052.03;5029678;28;1663;-40
2021/07/18 06:59:08;;;;;;;;;;;;;;;22.40;61.28;100049.22;5032136;28;1164;-40
2021/07/18 07:01:34;;;;;;;;;;;;;;;22.41;61.56;100039.28;5033159;28;1538;-40
2021/07/18 07:04:02;;;;;;;;;;;;;;;22.33;61.58;100029.38;5033531;28;1686;-40
2021/07/18 07:06:29;;;;;;;;;;;;;;;22.39;61.03;100038.59;5033077;28;1592;-41
2021/07/18 07:08:55;;;;;;;;;;;;;;;22.31;61.06;100044.88;5033856;28;1906;-40
2021/07/18 07:11:22;;;;;;;;;;;;;;;22.26;61.60;100049.09;5033777;28;1694;-40
2021/07/18 07:13:50;;;;;;;;;;;;;;;22.20;61.44;100027.22;5033133;28;1285;-41
2021/07/18 07:16:17;;;;;;;;;;;;;;;22.24;61.34;100028.56;5033226;28;1630;-41
2021/07/18 07:18:44;;;;;;;;;;;;;;;22.19;61.31;100033.59;5029728;28;1603;-41
2021/07/18 07:21:13;;;;;;;;;;;;;;;22.20;61.35;100043.38;5033794;28;1291;-41
2021/07/18 07:23:39;;;;;;;;;;;;;;;22.24;60.94;100025.88;5033715;28;1223;-41
2021/07/18 07:26:06;;;;;;;;;;;;;;;22.44;60.38;100020.03;5033558;28;1229;-40
2021/07/18 07:28:32;;;;;;;;;;;;;;;22.57;60.15;100022.19;5033119;28;1784;-41
2021/07/18 07:30:59;;;;;;;;;;;;;;;22.75;60.30;100035.38;5032965;28;1975;-41
2021/07/18 07:33:26;;;;;;;;;;;;;;;22.79;60.50;100026.75;5031859;28;1615;-41
2021/07/18 07:35:52;;;;;;;;;;;;;;;22.81;60.26;100018.50;5033033;28;1540;-41
2021/07/18 07:38:20;;;;;;;;;;;;;;;22.90;59.93;100020.13;5032439;28;1713;-41
2021/07/18 07:40:46;;;;;;;;;;;;;;;22.90;59.66;100012.03;5032665;28;1541;-41
2021/07/18 07:43:13;;;;;;;;;;;;;;;22.91;59.47;100023.66;5032615;28;1596;-41
2021/07/18 07:45:40;;;;;;;;;;;;;;;22.87;59.47;100007.00;5032486;28;1483;-41
2021/07/18 07:48:06;;;;;;;;;;;;;;;22.85;59.44;100009.03;5032886;28;1756;-41
2021/07/18 07:50:33;;;;;;;;;;;;;;;22.82;59.26;100009.41;5033004;28;1920;-41
2021/07/18 07:52:59;;;;;;;;;;;;;;;22.85;59.28;100009.03;5032585;28;2064;-41
2021/07/18 07:55:28;;;;;;;;;;;;;;;22.84;59.01;100007.38;5032476;28;1733;-41
2021/07/18 07:57:55;;;;;;;;;;;;;;;22.83;58.90;100011.91;5032905;28;1691;-41
2021/07/18 08:00:22;;;;;;;;;;;;;;;22.78;58.91;100010.75;5036213;28;1727;-41
2021/07/18 08:02:49;;;;;;;;;;;;;;;22.81;59.03;100007.72;5036926;28;2170;-41
2021/07/18 08:05:16;;;;;;;;;;;;;;;22.84;58.81;100024.38;5036011;28;1534;-41
2021/07/18 08:07:43;;;;;;;;;;;;;;;22.86;58.70;100010.72;5036800;28;1890;-41
2021/07/18 08:10:11;;;;;;;;;;;;;;;22.85;58.76;100003.63;5036424;28;1901;-41
2021/07/18 08:12:40;;;;;;;;;;;;;;;22.82;58.71;100009.41;5037400;28;1779;-41
2021/07/18 08:15:07;;;;;;;;;;;;;;;22.83;58.49;100019.16;5036967;28;1646;-41
2021/07/18 08:17:34;;;;;;;;;;;;;;;22.83;58.51;100011.06;5036338;28;1888;-41
2021/07/18 08:20:00;;;;;;;;;;;;;;;22.83;58.33;100011.06;5036088;28;1695;-42
2021/07/18 08:22:27;;;;;;;;;;;;;;;22.86;58.38;100015.25;5034284;28;1716;-40
2021/07/18 08:24:53;;;;;;;;;;;;;;;22.87;58.31;100006.16;5035703;28;1914;-41
2021/07/18 08:27:20;;;;;;;;;;;;;;;22.83;58.37;100024.53;5036389;28;1842;-41
2021/07/18 08:29:48;;;;;;;;;;;;;;;22.81;58.22;100013.09;5036269;28;1902;-41
2021/07/18 08:32:14;;;;;;;;;;;;;;;22.84;58.34;100004.66;5035151;28;1991;-42
2021/07/18 08:34:40;;;;;;;;;;;;;;;22.79;58.21;100012.44;5035296;28;1857;-41
2021/07/18 08:37:07;;;;;;;;;;;;;;;22.83;58.41;100000.28;5036284;28;1538;-41
2021/07/18 08:39:33;;;;;;;;;;;;;;;22.90;58.09;100020.13;5036651;28;1901;-41
2021/07/18 08:42:01;;;;;;;;;;;;;;;22.85;58.20;100009.03;5036012;28;1957;-41
2021/07/18 08:44:28;;;;;;;;;;;;;;;22.84;58.04;100013.59;5036658;28;1920;-41
2021/07/18 08:46:56;;;;;;;;;;;;;;;22.79;58.44;100012.44;5035564;28;1945;-41
2021/07/18 08:49:22;;;;;;;;;;;;;;;22.77;58.80;100009.91;5035859;28;1979;-41
2021/07/18 08:51:49;;;;;;;;;;;;;;;22.89;59.94;100004.94;5036030;28;1752;-41
2021/07/18 08:54:17;;;;;;;;;;;;;;;22.96;60.65;100000.53;5041310;28;1978;-40
2021/07/18 08:56:47;;;;;;;;;;;;;;;23.03;61.32;100006.88;5035213;28;1606;-41
2021/07/18 08:59:14;;;;;;;;;;;;;;;22.92;62.12;100003.75;5031268;28;1693;-41
2021/07/18 09:01:41;;;;;;;;;;;;;;;22.91;62.31;100008.31;5034910;28;1629;-41
2021/07/18 09:04:09;;;;;;;;;;;;;;;22.93;62.43;100000.88;5036223;28;1372;-40
2021/07/18 09:06:42;;;;;;;;;;;;;;;22.90;62.51;99995.84;5041028;28;1859;-41
2021/07/18 09:09:10;;;;;;;;;;;;;;;22.91;62.65;99992.13;5048984;28;1914;-40
2021/07/18 09:11:36;;;;;;;;;;;;;;;22.88;62.74;99994.34;5037437;28;1910;-41
2021/07/18 09:14:04;;;;;;;;;;;;;;;22.83;62.87;99984.94;5033838;28;1876;-40
2021/07/18 09:16:31;;;;;;;;;;;;;;;22.86;62.96;99999.94;5034137;28;1619;-41
2021/07/18 09:19:16;;;;;;;;;;;;;;;22.90;62.85;99989.59;5036822;28;1561;-41
2021/07/18 09:21:49;;;;;;;;;;;;;;;22.87;63.04;99980.03;5034747;28;1830;-41
2021/07/18 09:24:20;;;;;;;;;;;;;;;22.86;63.10;99989.16;5033858;28;1605;-40
2021/07/18 09:27:02;;;;;;;;;;;;;;;22.80;63.39;99973.66;5035097;28;1651;-39
2021/07/18 09:29:29;;;;;;;;;;;;;;;22.82;63.13;99983.28;5032361;28;1625;-41
2021/07/18 09:32:03;;;;;;;;;;;;;;;22.88;62.78;99976.34;5034750;28;1980;-41
2021/07/18 09:34:33;;;;;;;;;;;;;;;22.94;62.63;99981.00;5035235;28;1953;-41
2021/07/18 09:37:04;;;;;;;;;;;;;;;22.90;62.60;99968.91;5033779;28;1890;-41
2021/07/18 09:39:31;;;;;;;;;;;;;;;22.93;63.05;99973.91;5032888;28;1488;-41
2021/07/18 09:41:58;;;;;;;;;;;;;;;23.02;62.97;99978.25;5033690;28;1865;-41
2021/07/18 09:44:25;;;;;;;;;;;;;;;23.00;62.88;99961.41;5034797;28;1888;-41
2021/07/18 09:46:51;;;;;;;;;;;;;;;23.08;63.05;99981.25;5035492;28;1616;-41
2021/07/18 09:49:32;;;;;;;;;;;;;;;23.15;63.19;99968.72;5035235;28;1574;-41
2021/07/18 09:52:13;;;;;;;;;;;;;;;23.16;63.54;99973.09;5034590;28;2044;-41
2021/07/18 09:54:39;;;;;;;;;;;;;;;23.25;63.61;99980.06;5028774;28;1811;-41
2021/07/18 09:57:06;;;;;;;;;;;;;;;23.25;63.89;99946.88;5034228;28;1622;-41
2021/07/18 09:59:33;;;;;;;;;;;;;;;23.26;64.28;99952.09;5034202;28;1967;-41
2021/07/18 10:01:59;;;;;;;;;;;;;;;23.25;64.19;99955.81;5033993;28;1955;-41
2021/07/18 10:04:26;;;;;;;;;;;;;;;23.29;64.37;99972.47;5032350;28;1920;-41
2021/07/18 10:07:05;;;;;;;;;;;;;;;23.26;64.97;99960.19;5032987;28;1908;-41
2021/07/18 10:09:34;;;;;;;;;;;;;;;23.23;64.83;99961.38;5033722;28;2063;-41
2021/07/18 10:12:00;;;;;;;;;;;;;;;23.28;64.56;99951.88;5032140;28;1906;-41
2021/07/18 10:14:27;;;;;;;;;;;;;;;23.29;64.80;99943.63;5034165;28;1900;-41
2021/07/18 10:16:54;;;;;;;;;;;;;;;23.37;64.45;99950.81;5034805;28;1957;-41
2021/07/18 10:19:21;;;;;;;;;;;;;;;23.36;64.68;99966.16;5033628;28;1925;-42
2021/07/18 10:21:48;;;;;;;;;;;;;;;23.41;64.35;99950.25;5033510;28;1838;-41
2021/07/18 10:24:15;;;;;;;;;;;;;;;23.44;65.12;99954.44;5034076;28;2094;-40
2021/07/18 10:26:43;;;;;;;;;;;;;;;23.48;64.41;99952.22;5033942;28;1892;-41
2021/07/18 10:29:10;;;;;;;;;;;;;;;23.48;64.05;99936.88;5034214;28;1938;-41
2021/07/18 10:31:37;;;;;;;;;;;;;;;23.46;64.15;99949.72;5034019;28;1976;-41
2021/07/18 10:34:06;;;;;;;;;;;;;;;23.48;65.52;99955.75;5032817;28;1962;-41
2021/07/18 10:36:33;;;;;;;;;;;;;;;23.52;66.23;99961.63;5033390;28;1806;-41
2021/07/18 10:39:00;;;;;;;;;;;;;;;23.58;66.93;99939.28;5031812;28;1887;-41
2021/07/18 10:41:40;;;;;;;;;;;;;;;23.66;66.47;99944.59;5032036;28;1419;-41
2021/07/18 10:44:12;;;;;;;;;;;;;;;23.40;66.49;99953.16;5032059;28;1708;-41
2021/07/18 10:46:53;;;;;;;;;;;;;;;23.14;66.11;99940.06;5031040;28;1283;-41
2021/07/18 10:49:40;;;;;;;;;;;;;;;22.92;66.27;99942.59;5032620;28;1313;-41
2021/07/18 10:52:11;;;;;;;;;;;;;;;22.72;66.33;99949.47;5032204;28;2206;-41
2021/07/18 10:54:40;;;;;;;;;;;;;;;22.71;66.07;99953.22;5032002;28;1414;-41
2021/07/18 10:57:20;;;;;;;;;;;;;;;22.57;66.18;99952.94;5031851;28;1409;-41
2021/07/18 10:59:47;;;;;;;;;;;;;;;22.54;65.62;99945.25;5033644;28;1555;-40
2021/07/18 11:02:15;;;;;;;;;;;;;;;22.59;65.71;99944.69;5033423;28;1856;-41
2021/07/18 11:04:43;;;;;;;;;;;;;;;22.60;65.75;99930.19;5033527;28;1728;-41
2021/07/18 11:07:26;;;;;;;;;;;;;;;22.76;65.47;99940.00;5033100;28;1873;-41
2021/07/18 11:09:54;;;;;;;;;;;;;;;22.93;65.23;99938.88;5032727;28;1938;-41
2021/07/18 11:12:24;;;;;;;;;;;;;;;22.91;65.60;99929.28;5029974;28;2824;-41
2021/07/18 11:14:53;;;;;;;;;;;;;;;22.90;65.42;99933.84;5028195;28;1681;-41
2021/07/18 11:17:33;;;;;;;;;;;;;;;22.77;65.28;99937.13;5031353;28;1766;-40
2021/07/18 11:20:10;;;;;;;;;;;;;;;22.61;65.04;99926.50;5028762;28;1538;-41
2021/07/18 11:22:55;;;;;;;;;;;;;;;22.53;65.23;99926.56;5021418;28;1862;-41
2021/07/18 11:25:43;;;;;;;;;;;;;;;22.62;65.00;99934.41;5030391;28;1866;-41
2021/07/18 11:28:40;;;;;;;;;;;;;;;22.52;64.86;99922.16;5019377;28;1372;-41
2021/07/18 11:34:13;;;;;;;;;;;;;;;22.49;64.74;99912.59;5020839;28;2175;-40
2021/07/18 11:39:48;;;;;;;;;;;;;;;22.46;64.14;99912.13;5015661;28;2567;-41
2021/07/18 11:42:20;;;;;;;;;;;;;;;22.50;63.91;99921.50;5014302;28;1460;-40
2021/07/18 11:44:48;;;;;;;;;;;;;;;22.39;63.81;99904.75;5020391;28;1851;-40
2021/07/18 11:47:23;;;;;;;;;;;;;;;22.36;63.71;99918.59;5045015;28;1810;-40
2021/07/18 11:52:40;;;;;;;;;;;;;;;22.57;63.02;99904.44;5026655;28;2500;-40
2021/07/18 11:55:18;;;;;;;;;;;;;;;22.75;62.90;99906.00;5036495;28;1580;-41
2021/07/18 11:57:47;;;;;;;;;;;;;;;22.92;62.67;99902.16;5040133;28;1802;-40
2021/07/18 12:00:16;;;;;;;;;;;;;;;22.95;62.81;99904.47;5038393;28;1612;-40
2021/07/18 12:02:47;;;;;;;;;;;;;;;23.00;62.65;99904.78;5038817;28;1659;-40
2021/07/18 12:05:14;;;;;;;;;;;;;;;23.06;62.83;99903.25;5025872;28;2557;-40
2021/07/18 12:07:50;;;;;;;;;;;;;;;23.06;62.62;99886.19;5032656;28;1948;-40
2021/07/18 12:13:03;;;;;;;;;;;;;;;23.53;61.98;99887.72;5029682;28;2101;-41
2021/07/18 12:15:32;;;;;;;;;;;;;;;23.75;61.57;99889.47;5018971;28;2112;-41
2021/07/18 12:18:03;;;;;;;;;;;;;;;23.93;61.16;99882.88;5032553;28;1866;-40
2021/07/18 12:20:30;;;;;;;;;;;;;;;24.05;61.42;99889.44;5035692;28;1525;-40
2021/07/18 12:23:09;;;;;;;;;;;;;;;24.17;61.10;99901.44;5029854;28;1974;-40
2021/07/18 12:25:35;;;;;;;;;;;;;;;24.20;61.23;99892.13;5039905;28;2030;-40
2021/07/18 12:28:02;;;;;;;;;;;;;;;24.41;60.78;99896.69;5034730;28;1563;-39
2021/07/18 12:30:28;;;;;;;;;;;;;;;24.39;61.42;99890.63;5032072;28;1957;-40
2021/07/18 12:32:55;;;;;;;;;;;;;;;24.45;60.61;99892.56;5038089;28;2519;-40
2021/07/18 12:35:37;;;;;;;;;;;;;;;24.45;61.23;99897.97;5031024;28;2038;-40
2021/07/18 12:38:09;;;;;;;;;;;;;;;24.53;62.09;99894.34;5027604;28;1555;-40
2021/07/18 12:40:39;;;;;;;;;;;;;;;24.53;61.03;99878.97;5052580;28;1359;-40
2021/07/18 12:43:08;;;;;;;;;;;;;;;24.52;61.31;99882.69;5032860;28;2016;-40
2021/07/18 12:45:38;;;;;;;;;;;;;;;24.58;61.26;99883.78;5040183;28;1862;-40
2021/07/18 12:48:15;;;;;;;;;;;;;;;24.53;61.88;99865.47;5042815;28;1642;-40
2021/07/18 12:50:42;;;;;;;;;;;;;;;24.54;61.09;99890.63;5056249;28;1910;-40
2021/07/18 12:53:11;;;;;;;;;;;;;;;24.58;61.99;99883.78;5046327;28;1840;-40
2021/07/18 12:55:41;;;;;;;;;;;;;;;24.57;61.17;99871.28;5052075;28;1956;-40
2021/07/18 12:58:15;;;;;;;;;;;;;;;24.61;62.03;99862.63;5056324;28;1270;-40
2021/07/18 13:00:46;;;;;;;;;;;;;;;24.67;62.38;99862.84;5042943;28;2068;-40
2021/07/18 13:03:15;;;;;;;;;;;;;;;24.67;62.14;99870.97;5049815;28;1711;-40
2021/07/18 13:05:42;;;;;;;;;;;;;;;24.64;61.35;99869.50;5041560;28;1658;-40
2021/07/18 13:08:13;;;;;;;;;;;;;;;24.71;62.54;99869.53;5053138;28;1811;-40
2021/07/18 13:10:47;;;;;;;;;;;;;;;24.71;61.74;99869.53;5040744;28;1552;-40